sensor_id;sensor_type;location;lat;lon;timestamp;P1;durP1;ratioP1;P2;durP2;ratioP2
40170;SDS011;37650;52.790;18.268;2023-06-14T00:01:53;5.90;;;3.20;;
40170;SDS011;37650;52.790;18.268;2023-06-14T00:05:15;5.80;;;3.60;;
40170;SDS011;37650;52.790;18.268;2023-06-14T00:08:37;7.90;;;4.30;;
40170;SDS011;37650;52.790;18.268;2023-06-14T00:11:58;6.40;;;3.50;;
40170;SDS011;37650;52.790;18.268;2023-06-14T00:15:19;4.70;;;3.30;;
40170;SDS011;37650;52.790;18.268;2023-06-14T00:18:40;5.20;;;3.80;;
40170;SDS011;37650;52.790;18.268;2023-06-14T00:22:02;6.40;;;3.40;;
40170;SDS011;37650;52.790;18.268;2023-06-14T00:25:24;5.70;;;3.40;;
40170;SDS011;37650;52.790;18.268;2023-06-14T00:28:48;7.50;;;3.10;;
40170;SDS011;37650;52.790;18.268;2023-06-14T00:32:09;6.80;;;3.40;;
40170;SDS011;37650;52.790;18.268;2023-06-14T00:35:31;4.80;;;3.30;;
40170;SDS011;37650;52.790;18.268;2023-06-14T00:38:52;5.50;;;3.00;;
40170;SDS011;37650;52.790;18.268;2023-06-14T00:42:23;6.30;;;3.60;;
40170;SDS011;37650;52.790;18.268;2023-06-14T00:45:48;5.40;;;3.20;;
40170;SDS011;37650;52.790;18.268;2023-06-14T00:49:10;4.30;;;2.90;;
40170;SDS011;37650;52.790;18.268;2023-06-14T00:52:32;5.40;;;2.80;;
40170;SDS011;37650;52.790;18.268;2023-06-14T00:55:55;6.20;;;3.20;;
40170;SDS011;37650;52.790;18.268;2023-06-14T00:59:16;8.20;;;3.50;;
40170;SDS011;37650;52.790;18.268;2023-06-14T01:02:38;5.30;;;3.80;;
40170;SDS011;37650;52.790;18.268;2023-06-14T01:06:02;7.30;;;3.40;;
40170;SDS011;37650;52.790;18.268;2023-06-14T01:13:21;5.70;;;3.10;;
40170;SDS011;37650;52.790;18.268;2023-06-14T01:16:48;6.80;;;3.30;;
40170;SDS011;37650;52.790;18.268;2023-06-14T01:20:15;6.70;;;3.70;;
40170;SDS011;37650;52.790;18.268;2023-06-14T01:23:37;5.60;;;3.80;;
40170;SDS011;37650;52.790;18.268;2023-06-14T01:26:59;5.10;;;3.40;;
40170;SDS011;37650;52.790;18.268;2023-06-14T01:30:22;5.90;;;3.40;;
40170;SDS011;37650;52.790;18.268;2023-06-14T01:33:45;4.90;;;3.90;;
40170;SDS011;37650;52.790;18.268;2023-06-14T01:37:07;5.90;;;3.60;;
40170;SDS011;37650;52.790;18.268;2023-06-14T01:40:29;5.10;;;3.50;;
40170;SDS011;37650;52.790;18.268;2023-06-14T01:43:52;5.60;;;3.80;;
40170;SDS011;37650;52.790;18.268;2023-06-14T01:47:14;5.90;;;3.60;;
40170;SDS011;37650;52.790;18.268;2023-06-14T01:50:36;7.80;;;3.30;;
40170;SDS011;37650;52.790;18.268;2023-06-14T01:53:58;6.70;;;3.60;;
40170;SDS011;37650;52.790;18.268;2023-06-14T01:57:21;8.80;;;3.80;;
40170;SDS011;37650;52.790;18.268;2023-06-14T02:00:43;7.20;;;3.30;;
40170;SDS011;37650;52.790;18.268;2023-06-14T02:04:05;7.90;;;3.70;;
40170;SDS011;37650;52.790;18.268;2023-06-14T02:07:27;6.20;;;3.90;;
40170;SDS011;37650;52.790;18.268;2023-06-14T02:10:48;5.60;;;3.70;;
40170;SDS011;37650;52.790;18.268;2023-06-14T02:14:09;6.80;;;4.10;;
40170;SDS011;37650;52.790;18.268;2023-06-14T02:17:32;5.00;;;3.70;;
40170;SDS011;37650;52.790;18.268;2023-06-14T02:20:54;5.20;;;3.70;;
40170;SDS011;37650;52.790;18.268;2023-06-14T02:24:15;6.80;;;3.10;;
40170;SDS011;37650;52.790;18.268;2023-06-14T02:27:37;5.80;;;3.00;;
40170;SDS011;37650;52.790;18.268;2023-06-14T02:30:58;6.70;;;3.80;;
40170;SDS011;37650;52.790;18.268;2023-06-14T02:34:20;7.50;;;3.70;;
40170;SDS011;37650;52.790;18.268;2023-06-14T02:37:42;6.60;;;3.40;;
40170;SDS011;37650;52.790;18.268;2023-06-14T02:41:03;5.70;;;3.70;;
40170;SDS011;37650;52.790;18.268;2023-06-14T02:44:25;5.10;;;3.70;;
40170;SDS011;37650;52.790;18.268;2023-06-14T02:47:48;5.40;;;3.60;;
40170;SDS011;37650;52.790;18.268;2023-06-14T02:51:11;5.70;;;4.00;;
40170;SDS011;37650;52.790;18.268;2023-06-14T02:54:33;6.50;;;4.20;;
40170;SDS011;37650;52.790;18.268;2023-06-14T02:57:54;6.50;;;4.30;;
40170;SDS011;37650;52.790;18.268;2023-06-14T03:01:16;8.30;;;5.00;;
40170;SDS011;37650;52.790;18.268;2023-06-14T03:04:37;7.30;;;4.80;;
40170;SDS011;37650;52.790;18.268;2023-06-14T03:08:02;8.90;;;5.60;;
40170;SDS011;37650;52.790;18.268;2023-06-14T03:11:24;5.10;;;4.30;;
40170;SDS011;37650;52.790;18.268;2023-06-14T03:18:08;7.90;;;4.70;;
40170;SDS011;37650;52.790;18.268;2023-06-14T03:21:33;7.90;;;5.50;;
40170;SDS011;37650;52.790;18.268;2023-06-14T03:24:57;8.80;;;5.60;;
40170;SDS011;37650;52.790;18.268;2023-06-14T03:28:20;6.90;;;5.20;;
40170;SDS011;37650;52.790;18.268;2023-06-14T03:31:56;6.30;;;4.60;;
40170;SDS011;37650;52.790;18.268;2023-06-14T03:35:21;7.30;;;4.90;;
40170;SDS011;37650;52.790;18.268;2023-06-14T03:38:44;7.20;;;5.30;;
40170;SDS011;37650;52.790;18.268;2023-06-14T03:42:06;6.30;;;4.60;;
40170;SDS011;37650;52.790;18.268;2023-06-14T03:45:27;6.90;;;4.70;;
40170;SDS011;37650;52.790;18.268;2023-06-14T03:48:49;6.20;;;4.50;;
40170;SDS011;37650;52.790;18.268;2023-06-14T03:52:11;6.40;;;4.40;;
40170;SDS011;37650;52.790;18.268;2023-06-14T03:55:33;6.40;;;4.40;;
40170;SDS011;37650;52.790;18.268;2023-06-14T03:58:55;6.60;;;4.80;;
40170;SDS011;37650;52.790;18.268;2023-06-14T04:02:17;7.50;;;5.10;;
40170;SDS011;37650;52.790;18.268;2023-06-14T04:09:04;6.10;;;5.40;;
40170;SDS011;37650;52.790;18.268;2023-06-14T04:12:25;6.40;;;5.70;;
40170;SDS011;37650;52.790;18.268;2023-06-14T04:15:47;6.90;;;5.10;;
40170;SDS011;37650;52.790;18.268;2023-06-14T04:19:16;8.40;;;6.30;;
40170;SDS011;37650;52.790;18.268;2023-06-14T04:22:38;7.60;;;5.70;;
40170;SDS011;37650;52.790;18.268;2023-06-14T04:26:00;7.70;;;6.10;;
40170;SDS011;37650;52.790;18.268;2023-06-14T04:32:50;7.80;;;6.20;;
40170;SDS011;37650;52.790;18.268;2023-06-14T04:36:16;9.40;;;7.40;;
40170;SDS011;37650;52.790;18.268;2023-06-14T04:39:41;10.00;;;7.40;;
40170;SDS011;37650;52.790;18.268;2023-06-14T04:43:03;7.50;;;6.40;;
40170;SDS011;37650;52.790;18.268;2023-06-14T04:46:26;9.40;;;6.70;;
40170;SDS011;37650;52.790;18.268;2023-06-14T04:49:50;11.20;;;6.40;;
40170;SDS011;37650;52.790;18.268;2023-06-14T04:53:15;9.20;;;7.10;;
40170;SDS011;37650;52.790;18.268;2023-06-14T04:56:37;10.30;;;7.50;;
40170;SDS011;37650;52.790;18.268;2023-06-14T04:59:58;12.90;;;7.90;;
40170;SDS011;37650;52.790;18.268;2023-06-14T05:03:23;11.10;;;6.80;;
40170;SDS011;37650;52.790;18.268;2023-06-14T05:06:44;8.40;;;7.30;;
40170;SDS011;37650;52.790;18.268;2023-06-14T05:10:07;10.30;;;7.20;;
40170;SDS011;37650;52.790;18.268;2023-06-14T05:13:29;12.20;;;8.00;;
40170;SDS011;37650;52.790;18.268;2023-06-14T05:16:51;10.30;;;7.80;;
40170;SDS011;37650;52.790;18.268;2023-06-14T05:20:14;12.10;;;8.80;;
40170;SDS011;37650;52.790;18.268;2023-06-14T05:23:36;9.70;;;7.90;;
40170;SDS011;37650;52.790;18.268;2023-06-14T05:26:57;13.00;;;7.60;;
40170;SDS011;37650;52.790;18.268;2023-06-14T05:30:19;9.50;;;7.30;;
40170;SDS011;37650;52.790;18.268;2023-06-14T05:37:03;9.90;;;7.40;;
40170;SDS011;37650;52.790;18.268;2023-06-14T05:40:24;11.00;;;7.40;;
40170;SDS011;37650;52.790;18.268;2023-06-14T05:43:46;13.30;;;7.80;;
40170;SDS011;37650;52.790;18.268;2023-06-14T05:47:07;13.50;;;8.00;;
40170;SDS011;37650;52.790;18.268;2023-06-14T05:50:28;12.60;;;8.20;;
40170;SDS011;37650;52.790;18.268;2023-06-14T05:53:50;13.40;;;8.00;;
40170;SDS011;37650;52.790;18.268;2023-06-14T05:57:11;12.00;;;8.20;;
40170;SDS011;37650;52.790;18.268;2023-06-14T06:00:32;14.30;;;8.10;;
40170;SDS011;37650;52.790;18.268;2023-06-14T06:03:54;13.70;;;7.80;;
40170;SDS011;37650;52.790;18.268;2023-06-14T06:07:15;10.50;;;8.80;;
40170;SDS011;37650;52.790;18.268;2023-06-14T06:10:36;14.20;;;8.10;;
40170;SDS011;37650;52.790;18.268;2023-06-14T06:13:57;14.30;;;9.10;;
40170;SDS011;37650;52.790;18.268;2023-06-14T06:17:19;13.30;;;8.70;;
40170;SDS011;37650;52.790;18.268;2023-06-14T06:20:40;9.60;;;7.70;;
40170;SDS011;37650;52.790;18.268;2023-06-14T06:24:01;12.90;;;8.20;;
40170;SDS011;37650;52.790;18.268;2023-06-14T06:27:25;13.00;;;9.40;;
40170;SDS011;37650;52.790;18.268;2023-06-14T06:30:46;13.50;;;9.10;;
40170;SDS011;37650;52.790;18.268;2023-06-14T06:34:08;13.30;;;8.40;;
40170;SDS011;37650;52.790;18.268;2023-06-14T06:37:30;11.20;;;8.10;;
40170;SDS011;37650;52.790;18.268;2023-06-14T06:40:51;14.10;;;9.10;;
40170;SDS011;37650;52.790;18.268;2023-06-14T06:44:12;18.80;;;9.50;;
40170;SDS011;37650;52.790;18.268;2023-06-14T06:47:33;16.30;;;9.40;;
40170;SDS011;37650;52.790;18.268;2023-06-14T06:50:55;13.20;;;10.20;;
40170;SDS011;37650;52.790;18.268;2023-06-14T06:54:16;12.20;;;8.10;;
40170;SDS011;37650;52.790;18.268;2023-06-14T06:57:37;10.80;;;8.40;;
40170;SDS011;37650;52.790;18.268;2023-06-14T07:00:58;13.60;;;8.90;;
40170;SDS011;37650;52.790;18.268;2023-06-14T07:04:20;10.50;;;8.60;;
40170;SDS011;37650;52.790;18.268;2023-06-14T07:07:41;13.90;;;9.00;;
40170;SDS011;37650;52.790;18.268;2023-06-14T07:11:03;12.30;;;7.70;;
40170;SDS011;37650;52.790;18.268;2023-06-14T07:14:24;9.70;;;8.30;;
40170;SDS011;37650;52.790;18.268;2023-06-14T07:17:45;10.80;;;7.40;;
40170;SDS011;37650;52.790;18.268;2023-06-14T07:21:07;7.70;;;6.70;;
40170;SDS011;37650;52.790;18.268;2023-06-14T07:24:28;11.10;;;7.70;;
40170;SDS011;37650;52.790;18.268;2023-06-14T07:27:49;8.40;;;6.80;;
40170;SDS011;37650;52.790;18.268;2023-06-14T07:31:10;11.50;;;7.20;;
40170;SDS011;37650;52.790;18.268;2023-06-14T07:34:33;12.00;;;7.20;;
40170;SDS011;37650;52.790;18.268;2023-06-14T07:37:55;8.50;;;6.70;;
40170;SDS011;37650;52.790;18.268;2023-06-14T07:41:16;10.10;;;7.40;;
40170;SDS011;37650;52.790;18.268;2023-06-14T07:44:37;11.20;;;7.30;;
40170;SDS011;37650;52.790;18.268;2023-06-14T07:47:57;10.20;;;6.90;;
40170;SDS011;37650;52.790;18.268;2023-06-14T07:51:18;11.10;;;7.20;;
40170;SDS011;37650;52.790;18.268;2023-06-14T07:54:39;12.80;;;8.40;;
40170;SDS011;37650;52.790;18.268;2023-06-14T07:58:02;12.00;;;8.00;;
40170;SDS011;37650;52.790;18.268;2023-06-14T08:01:27;9.90;;;8.30;;
40170;SDS011;37650;52.790;18.268;2023-06-14T08:04:48;10.90;;;9.10;;
40170;SDS011;37650;52.790;18.268;2023-06-14T08:08:09;8.80;;;7.40;;
40170;SDS011;37650;52.790;18.268;2023-06-14T08:11:31;9.60;;;7.60;;
40170;SDS011;37650;52.790;18.268;2023-06-14T08:14:52;13.10;;;8.10;;
40170;SDS011;37650;52.790;18.268;2023-06-14T08:18:13;9.70;;;7.20;;
40170;SDS011;37650;52.790;18.268;2023-06-14T08:24:57;16.40;;;7.60;;
40170;SDS011;37650;52.790;18.268;2023-06-14T08:28:18;10.80;;;7.70;;
40170;SDS011;37650;52.790;18.268;2023-06-14T08:31:39;11.20;;;7.60;;
40170;SDS011;37650;52.790;18.268;2023-06-14T08:35:00;15.10;;;8.10;;
40170;SDS011;37650;52.790;18.268;2023-06-14T08:38:21;11.90;;;8.20;;
40170;SDS011;37650;52.790;18.268;2023-06-14T08:41:47;13.80;;;9.30;;
40170;SDS011;37650;52.790;18.268;2023-06-14T08:45:11;14.20;;;8.80;;
40170;SDS011;37650;52.790;18.268;2023-06-14T08:48:32;8.60;;;7.10;;
40170;SDS011;37650;52.790;18.268;2023-06-14T08:51:56;11.70;;;7.90;;
40170;SDS011;37650;52.790;18.268;2023-06-14T08:55:19;10.70;;;7.40;;
40170;SDS011;37650;52.790;18.268;2023-06-14T09:02:05;13.10;;;6.70;;
40170;SDS011;37650;52.790;18.268;2023-06-14T09:08:49;9.90;;;7.10;;
40170;SDS011;37650;52.790;18.268;2023-06-14T09:12:10;10.30;;;7.90;;
40170;SDS011;37650;52.790;18.268;2023-06-14T09:15:33;12.60;;;7.30;;
40170;SDS011;37650;52.790;18.268;2023-06-14T09:22:47;10.30;;;7.20;;
40170;SDS011;37650;52.790;18.268;2023-06-14T09:26:09;10.40;;;6.40;;
40170;SDS011;37650;52.790;18.268;2023-06-14T09:29:31;11.60;;;6.30;;
40170;SDS011;37650;52.790;18.268;2023-06-14T09:32:52;8.80;;;6.80;;
40170;SDS011;37650;52.790;18.268;2023-06-14T09:36:21;10.70;;;5.90;;
40170;SDS011;37650;52.790;18.268;2023-06-14T09:39:50;8.70;;;6.00;;
40170;SDS011;37650;52.790;18.268;2023-06-14T09:43:12;11.80;;;5.60;;
40170;SDS011;37650;52.790;18.268;2023-06-14T09:46:34;6.50;;;4.80;;
40170;SDS011;37650;52.790;18.268;2023-06-14T09:49:56;9.70;;;5.50;;
40170;SDS011;37650;52.790;18.268;2023-06-14T09:53:20;7.50;;;4.90;;
40170;SDS011;37650;52.790;18.268;2023-06-14T09:56:46;8.40;;;5.20;;
40170;SDS011;37650;52.790;18.268;2023-06-14T10:00:08;9.10;;;5.30;;
40170;SDS011;37650;52.790;18.268;2023-06-14T10:03:33;7.30;;;5.60;;
40170;SDS011;37650;52.790;18.268;2023-06-14T10:10:15;16.00;;;7.20;;
40170;SDS011;37650;52.790;18.268;2023-06-14T10:13:37;18.00;;;12.20;;
40170;SDS011;37650;52.790;18.268;2023-06-14T10:17:07;19.10;;;15.70;;
40170;SDS011;37650;52.790;18.268;2023-06-14T10:24:17;20.50;;;16.70;;
40170;SDS011;37650;52.790;18.268;2023-06-14T10:27:44;13.80;;;11.30;;
40170;SDS011;37650;52.790;18.268;2023-06-14T10:31:08;13.60;;;10.50;;
40170;SDS011;37650;52.790;18.268;2023-06-14T10:34:31;18.60;;;13.10;;
40170;SDS011;37650;52.790;18.268;2023-06-14T10:37:53;14.40;;;9.30;;
40170;SDS011;37650;52.790;18.268;2023-06-14T10:41:14;11.80;;;8.10;;
40170;SDS011;37650;52.790;18.268;2023-06-14T10:44:39;10.70;;;6.90;;
40170;SDS011;37650;52.790;18.268;2023-06-14T10:48:01;10.50;;;6.90;;
40170;SDS011;37650;52.790;18.268;2023-06-14T10:51:23;15.40;;;6.80;;
40170;SDS011;37650;52.790;18.268;2023-06-14T10:58:26;12.50;;;7.10;;
40170;SDS011;37650;52.790;18.268;2023-06-14T11:05:08;11.90;;;8.50;;
40170;SDS011;37650;52.790;18.268;2023-06-14T11:12:21;7.80;;;7.00;;
40170;SDS011;37650;52.790;18.268;2023-06-14T11:15:47;10.60;;;7.70;;
40170;SDS011;37650;52.790;18.268;2023-06-14T11:19:08;9.60;;;5.80;;
40170;SDS011;37650;52.790;18.268;2023-06-14T11:22:38;8.30;;;6.20;;
40170;SDS011;37650;52.790;18.268;2023-06-14T11:26:00;10.70;;;7.60;;
40170;SDS011;37650;52.790;18.268;2023-06-14T11:32:42;9.80;;;6.50;;
40170;SDS011;37650;52.790;18.268;2023-06-14T11:36:06;13.60;;;7.30;;
40170;SDS011;37650;52.790;18.268;2023-06-14T11:39:29;10.10;;;7.70;;
40170;SDS011;37650;52.790;18.268;2023-06-14T11:42:54;13.00;;;8.30;;
40170;SDS011;37650;52.790;18.268;2023-06-14T11:46:20;8.80;;;7.90;;
40170;SDS011;37650;52.790;18.268;2023-06-14T11:50:03;9.20;;;6.70;;
40170;SDS011;37650;52.790;18.268;2023-06-14T11:53:25;8.40;;;6.30;;
40170;SDS011;37650;52.790;18.268;2023-06-14T11:56:47;9.70;;;5.30;;
40170;SDS011;37650;52.790;18.268;2023-06-14T12:00:11;7.60;;;4.90;;
40170;SDS011;37650;52.790;18.268;2023-06-14T12:03:33;8.30;;;4.70;;
40170;SDS011;37650;52.790;18.268;2023-06-14T12:06:54;9.20;;;4.10;;
40170;SDS011;37650;52.790;18.268;2023-06-14T12:10:16;7.00;;;3.10;;
40170;SDS011;37650;52.790;18.268;2023-06-14T12:13:38;5.80;;;2.80;;
40170;SDS011;37650;52.790;18.268;2023-06-14T12:17:06;5.50;;;2.40;;
40170;SDS011;37650;52.790;18.268;2023-06-14T12:20:29;5.90;;;2.50;;
40170;SDS011;37650;52.790;18.268;2023-06-14T12:23:51;6.30;;;2.70;;
40170;SDS011;37650;52.790;18.268;2023-06-14T12:27:13;5.20;;;2.50;;
40170;SDS011;37650;52.790;18.268;2023-06-14T12:30:37;3.00;;;2.00;;
40170;SDS011;37650;52.790;18.268;2023-06-14T12:37:19;4.10;;;2.50;;
40170;SDS011;37650;52.790;18.268;2023-06-14T12:40:41;5.00;;;2.30;;
40170;SDS011;37650;52.790;18.268;2023-06-14T12:44:03;4.00;;;2.40;;
40170;SDS011;37650;52.790;18.268;2023-06-14T12:47:26;4.40;;;2.20;;
40170;SDS011;37650;52.790;18.268;2023-06-14T12:50:48;5.00;;;2.40;;
40170;SDS011;37650;52.790;18.268;2023-06-14T12:54:09;4.10;;;2.40;;
40170;SDS011;37650;52.790;18.268;2023-06-14T12:57:31;6.20;;;2.50;;
40170;SDS011;37650;52.790;18.268;2023-06-14T13:00:52;5.70;;;2.50;;
40170;SDS011;37650;52.790;18.268;2023-06-14T13:04:13;6.50;;;2.70;;
40170;SDS011;37650;52.790;18.268;2023-06-14T13:07:35;8.40;;;2.20;;
40170;SDS011;37650;52.790;18.268;2023-06-14T13:10:56;4.30;;;2.20;;
40170;SDS011;37650;52.790;18.268;2023-06-14T13:14:18;4.50;;;2.40;;
40170;SDS011;37650;52.790;18.268;2023-06-14T13:17:39;7.20;;;2.80;;
40170;SDS011;37650;52.790;18.268;2023-06-14T13:21:01;5.10;;;2.60;;
40170;SDS011;37650;52.790;18.268;2023-06-14T13:24:22;6.60;;;2.90;;
40170;SDS011;37650;52.790;18.268;2023-06-14T13:27:43;14.50;;;3.20;;
40170;SDS011;37650;52.790;18.268;2023-06-14T13:31:04;4.30;;;2.60;;
40170;SDS011;37650;52.790;18.268;2023-06-14T13:34:27;4.80;;;3.00;;
40170;SDS011;37650;52.790;18.268;2023-06-14T13:37:49;6.60;;;3.20;;
40170;SDS011;37650;52.790;18.268;2023-06-14T13:41:10;9.00;;;3.00;;
40170;SDS011;37650;52.790;18.268;2023-06-14T13:44:31;6.10;;;3.00;;
40170;SDS011;37650;52.790;18.268;2023-06-14T13:47:53;7.10;;;3.00;;
40170;SDS011;37650;52.790;18.268;2023-06-14T13:51:15;6.20;;;2.90;;
40170;SDS011;37650;52.790;18.268;2023-06-14T13:54:39;6.70;;;2.90;;
40170;SDS011;37650;52.790;18.268;2023-06-14T13:58:01;6.10;;;3.10;;
40170;SDS011;37650;52.790;18.268;2023-06-14T14:01:22;7.90;;;3.10;;
40170;SDS011;37650;52.790;18.268;2023-06-14T14:04:44;7.60;;;3.10;;
40170;SDS011;37650;52.790;18.268;2023-06-14T14:08:12;6.90;;;3.30;;
40170;SDS011;37650;52.790;18.268;2023-06-14T14:11:33;4.60;;;3.20;;
40170;SDS011;37650;52.790;18.268;2023-06-14T14:14:55;7.40;;;2.70;;
40170;SDS011;37650;52.790;18.268;2023-06-14T14:21:38;4.80;;;2.90;;
40170;SDS011;37650;52.790;18.268;2023-06-14T14:24:59;10.10;;;3.40;;
40170;SDS011;37650;52.790;18.268;2023-06-14T14:28:21;6.20;;;3.10;;
40170;SDS011;37650;52.790;18.268;2023-06-14T14:31:42;6.10;;;3.00;;
40170;SDS011;37650;52.790;18.268;2023-06-14T14:35:03;9.40;;;3.80;;
40170;SDS011;37650;52.790;18.268;2023-06-14T14:38:26;9.20;;;3.80;;
40170;SDS011;37650;52.790;18.268;2023-06-14T14:41:47;6.80;;;3.40;;
40170;SDS011;37650;52.790;18.268;2023-06-14T14:45:09;5.10;;;3.50;;
40170;SDS011;37650;52.790;18.268;2023-06-14T14:48:31;5.70;;;3.30;;
40170;SDS011;37650;52.790;18.268;2023-06-14T14:51:55;5.60;;;3.50;;
40170;SDS011;37650;52.790;18.268;2023-06-14T14:55:17;5.60;;;3.50;;
40170;SDS011;37650;52.790;18.268;2023-06-14T14:58:38;6.80;;;3.20;;
40170;SDS011;37650;52.790;18.268;2023-06-14T15:01:59;9.30;;;3.90;;
40170;SDS011;37650;52.790;18.268;2023-06-14T15:05:21;5.20;;;3.20;;
40170;SDS011;37650;52.790;18.268;2023-06-14T15:08:42;6.10;;;3.20;;
40170;SDS011;37650;52.790;18.268;2023-06-14T15:12:05;7.90;;;3.80;;
40170;SDS011;37650;52.790;18.268;2023-06-14T15:15:27;7.50;;;3.80;;
40170;SDS011;37650;52.790;18.268;2023-06-14T15:18:48;11.80;;;3.60;;
40170;SDS011;37650;52.790;18.268;2023-06-14T15:22:10;8.70;;;3.30;;
40170;SDS011;37650;52.790;18.268;2023-06-14T15:25:31;5.70;;;3.00;;
40170;SDS011;37650;52.790;18.268;2023-06-14T15:28:53;5.00;;;2.50;;
40170;SDS011;37650;52.790;18.268;2023-06-14T15:32:15;3.80;;;2.40;;
40170;SDS011;37650;52.790;18.268;2023-06-14T15:35:36;3.60;;;2.60;;
40170;SDS011;37650;52.790;18.268;2023-06-14T15:38:57;6.90;;;2.90;;
40170;SDS011;37650;52.790;18.268;2023-06-14T15:42:18;6.00;;;2.50;;
40170;SDS011;37650;52.790;18.268;2023-06-14T15:45:39;6.10;;;2.50;;
40170;SDS011;37650;52.790;18.268;2023-06-14T15:49:00;4.30;;;2.60;;
40170;SDS011;37650;52.790;18.268;2023-06-14T15:52:23;4.70;;;2.90;;
40170;SDS011;37650;52.790;18.268;2023-06-14T15:55:44;6.40;;;3.30;;
40170;SDS011;37650;52.790;18.268;2023-06-14T15:59:06;6.80;;;2.80;;
40170;SDS011;37650;52.790;18.268;2023-06-14T16:02:27;6.80;;;3.10;;
40170;SDS011;37650;52.790;18.268;2023-06-14T16:05:49;6.50;;;3.10;;
40170;SDS011;37650;52.790;18.268;2023-06-14T16:09:10;4.20;;;2.60;;
40170;SDS011;37650;52.790;18.268;2023-06-14T16:12:31;5.10;;;3.50;;
40170;SDS011;37650;52.790;18.268;2023-06-14T16:15:53;6.00;;;3.10;;
40170;SDS011;37650;52.790;18.268;2023-06-14T16:19:14;5.70;;;3.30;;
40170;SDS011;37650;52.790;18.268;2023-06-14T16:22:36;6.70;;;3.70;;
40170;SDS011;37650;52.790;18.268;2023-06-14T16:29:18;8.40;;;3.60;;
40170;SDS011;37650;52.790;18.268;2023-06-14T16:32:39;6.70;;;3.20;;
40170;SDS011;37650;52.790;18.268;2023-06-14T16:36:00;7.30;;;3.50;;
40170;SDS011;37650;52.790;18.268;2023-06-14T16:39:21;5.40;;;3.40;;
40170;SDS011;37650;52.790;18.268;2023-06-14T16:42:43;4.80;;;3.50;;
40170;SDS011;37650;52.790;18.268;2023-06-14T16:46:04;5.90;;;3.50;;
40170;SDS011;37650;52.790;18.268;2023-06-14T16:49:27;6.20;;;4.20;;
40170;SDS011;37650;52.790;18.268;2023-06-14T16:52:49;8.30;;;3.90;;
40170;SDS011;37650;52.790;18.268;2023-06-14T16:56:10;5.90;;;3.10;;
40170;SDS011;37650;52.790;18.268;2023-06-14T16:59:31;6.80;;;3.40;;
40170;SDS011;37650;52.790;18.268;2023-06-14T17:02:53;8.30;;;3.90;;
40170;SDS011;37650;52.790;18.268;2023-06-14T17:06:15;6.50;;;4.00;;
40170;SDS011;37650;52.790;18.268;2023-06-14T17:09:37;6.80;;;4.00;;
40170;SDS011;37650;52.790;18.268;2023-06-14T17:12:58;6.00;;;4.10;;
40170;SDS011;37650;52.790;18.268;2023-06-14T17:16:19;8.40;;;4.30;;
40170;SDS011;37650;52.790;18.268;2023-06-14T17:19:42;8.20;;;4.40;;
40170;SDS011;37650;52.790;18.268;2023-06-14T17:23:03;7.30;;;4.10;;
40170;SDS011;37650;52.790;18.268;2023-06-14T17:26:25;6.70;;;4.80;;
40170;SDS011;37650;52.790;18.268;2023-06-14T17:29:46;9.30;;;4.60;;
40170;SDS011;37650;52.790;18.268;2023-06-14T17:33:08;8.20;;;4.30;;
40170;SDS011;37650;52.790;18.268;2023-06-14T17:36:30;6.80;;;4.50;;
40170;SDS011;37650;52.790;18.268;2023-06-14T17:39:51;11.70;;;4.80;;
40170;SDS011;37650;52.790;18.268;2023-06-14T17:43:12;8.60;;;5.00;;
40170;SDS011;37650;52.790;18.268;2023-06-14T17:46:33;7.40;;;5.50;;
40170;SDS011;37650;52.790;18.268;2023-06-14T17:49:55;8.00;;;5.00;;
40170;SDS011;37650;52.790;18.268;2023-06-14T17:53:16;7.90;;;5.60;;
40170;SDS011;37650;52.790;18.268;2023-06-14T17:56:37;7.50;;;4.90;;
40170;SDS011;37650;52.790;18.268;2023-06-14T17:59:59;7.60;;;4.50;;
40170;SDS011;37650;52.790;18.268;2023-06-14T18:03:20;6.80;;;5.70;;
40170;SDS011;37650;52.790;18.268;2023-06-14T18:06:41;8.10;;;5.60;;
40170;SDS011;37650;52.790;18.268;2023-06-14T18:10:03;8.70;;;5.40;;
40170;SDS011;37650;52.790;18.268;2023-06-14T18:13:24;7.30;;;5.50;;
40170;SDS011;37650;52.790;18.268;2023-06-14T18:16:45;8.60;;;6.00;;
40170;SDS011;37650;52.790;18.268;2023-06-14T18:20:07;7.00;;;5.10;;
40170;SDS011;37650;52.790;18.268;2023-06-14T18:23:29;7.20;;;5.40;;
40170;SDS011;37650;52.790;18.268;2023-06-14T18:26:50;8.40;;;6.10;;
40170;SDS011;37650;52.790;18.268;2023-06-14T18:30:12;7.80;;;6.60;;
40170;SDS011;37650;52.790;18.268;2023-06-14T18:33:34;11.40;;;6.70;;
40170;SDS011;37650;52.790;18.268;2023-06-14T18:36:55;10.00;;;6.40;;
40170;SDS011;37650;52.790;18.268;2023-06-14T18:40:18;9.70;;;6.20;;
40170;SDS011;37650;52.790;18.268;2023-06-14T18:43:40;10.80;;;7.10;;
40170;SDS011;37650;52.790;18.268;2023-06-14T18:47:01;8.30;;;6.80;;
40170;SDS011;37650;52.790;18.268;2023-06-14T18:50:22;11.20;;;8.00;;
40170;SDS011;37650;52.790;18.268;2023-06-14T18:53:46;8.60;;;6.50;;
40170;SDS011;37650;52.790;18.268;2023-06-14T18:57:07;9.30;;;7.00;;
40170;SDS011;37650;52.790;18.268;2023-06-14T19:00:29;9.00;;;6.90;;
40170;SDS011;37650;52.790;18.268;2023-06-14T19:03:51;9.60;;;7.30;;
40170;SDS011;37650;52.790;18.268;2023-06-14T19:07:12;9.20;;;7.00;;
40170;SDS011;37650;52.790;18.268;2023-06-14T19:10:33;8.90;;;5.80;;
40170;SDS011;37650;52.790;18.268;2023-06-14T19:17:17;7.90;;;6.70;;
40170;SDS011;37650;52.790;18.268;2023-06-14T19:20:38;8.20;;;6.90;;
40170;SDS011;37650;52.790;18.268;2023-06-14T19:23:59;9.70;;;7.10;;
40170;SDS011;37650;52.790;18.268;2023-06-14T19:27:21;8.50;;;7.20;;
40170;SDS011;37650;52.790;18.268;2023-06-14T19:30:42;15.10;;;7.70;;
40170;SDS011;37650;52.790;18.268;2023-06-14T19:34:03;8.50;;;6.50;;
40170;SDS011;37650;52.790;18.268;2023-06-14T19:37:25;10.10;;;6.90;;
40170;SDS011;37650;52.790;18.268;2023-06-14T19:40:46;10.70;;;7.30;;
40170;SDS011;37650;52.790;18.268;2023-06-14T19:44:07;8.20;;;6.80;;
40170;SDS011;37650;52.790;18.268;2023-06-14T19:47:28;9.70;;;8.00;;
40170;SDS011;37650;52.790;18.268;2023-06-14T19:50:50;9.40;;;7.30;;
40170;SDS011;37650;52.790;18.268;2023-06-14T19:54:11;10.00;;;7.60;;
40170;SDS011;37650;52.790;18.268;2023-06-14T19:57:33;8.80;;;7.60;;
40170;SDS011;37650;52.790;18.268;2023-06-14T20:00:54;11.70;;;8.00;;
40170;SDS011;37650;52.790;18.268;2023-06-14T20:04:15;12.00;;;7.70;;
40170;SDS011;37650;52.790;18.268;2023-06-14T20:07:38;12.70;;;7.90;;
40170;SDS011;37650;52.790;18.268;2023-06-14T20:10:59;10.90;;;7.50;;
40170;SDS011;37650;52.790;18.268;2023-06-14T20:14:20;11.20;;;8.10;;
40170;SDS011;37650;52.790;18.268;2023-06-14T20:21:04;9.70;;;7.20;;
40170;SDS011;37650;52.790;18.268;2023-06-14T20:24:26;7.10;;;6.40;;
40170;SDS011;37650;52.790;18.268;2023-06-14T20:27:47;9.80;;;7.30;;
40170;SDS011;37650;52.790;18.268;2023-06-14T20:31:08;8.90;;;7.00;;
40170;SDS011;37650;52.790;18.268;2023-06-14T20:34:31;10.90;;;7.10;;
40170;SDS011;37650;52.790;18.268;2023-06-14T20:37:52;9.70;;;7.30;;
40170;SDS011;37650;52.790;18.268;2023-06-14T20:41:13;9.40;;;7.60;;
40170;SDS011;37650;52.790;18.268;2023-06-14T20:44:35;8.70;;;7.00;;
40170;SDS011;37650;52.790;18.268;2023-06-14T20:48:02;12.30;;;7.70;;
40170;SDS011;37650;52.790;18.268;2023-06-14T20:51:23;8.80;;;7.60;;
40170;SDS011;37650;52.790;18.268;2023-06-14T20:54:45;9.70;;;7.80;;
40170;SDS011;37650;52.790;18.268;2023-06-14T20:58:06;12.30;;;9.10;;
40170;SDS011;37650;52.790;18.268;2023-06-14T21:01:28;9.90;;;8.80;;
40170;SDS011;37650;52.790;18.268;2023-06-14T21:04:55;11.80;;;8.00;;